F/V Jeremi Simon — FHAF — position and weather

sailwx.info

Track history (hours):
 
Tides and Currents Weather Stations Pressure Air Temp Water Temp Dewpoint Dewpoint Depression Visibility Wind Speed Wind Dir Waves Ship Positions

F/V Jeremi Simon

Last reported at 2016-Feb-05 00:33 UTC. Time now 2016-Feb-06 11:34 UTC.
Position N 46°42' W 001°56'.

Length 20 m.

Type: Other ship. MMSI: 227415000.

Date/timePositionNaut miles runAvg speedWind from/ knotsBaromVisibWave heightAir tempDewpointWater temp
2016-Feb-05 00:33N 46°42' W 001°56'0 0.1
2016-Feb-04 23:33N 46°42' W 001°57'4 4.3
2016-Feb-04 22:33N 46°37' W 001°57'9 9.1
2016-Feb-04 21:33N 46°29' W 001°51'3 2.8
2016-Feb-04 20:33N 46°30' W 001°47'0 0.0
2016-Feb-04 19:33N 46°30' W 001°47'0 0.0
2016-Feb-04 18:33N 46°30' W 001°47'0 0.0
2016-Feb-04 17:33N 46°30' W 001°47'0 0.0
2016-Feb-04 16:33N 46°30' W 001°47'0 0.0
2016-Feb-04 15:33N 46°30' W 001°47'0 0.0
2016-Feb-04 14:33N 46°30' W 001°47'5 4.6
2016-Feb-04 13:33N 46°30' W 001°54'10 9.8
2016-Feb-04 12:33N 46°34' W 002°07'  
2016-Feb-01 16:15N 47°01' W 003°52'6 8.1
2016-Feb-01 15:28N 46°58' W 003°43'8 8.1
2016-Feb-01 14:27N 46°54' W 003°33'7 8.1
2016-Feb-01 13:32N 46°51' W 003°23'31 7.7
2016-Feb-01 09:32N 46°40' W 002°41'8 7.7
2016-Feb-01 08:32N 46°39' W 002°30'7 7.5
2016-Feb-01 07:33N 46°40' W 002°19'8 7.7
2016-Feb-01 06:33N 46°40' W 002°08'7 7.4
2016-Feb-01 05:33N 46°41' W 001°57'  
2016-Jan-29 10:33N 46°42' W 001°57'0 0.0
2016-Jan-29 09:33N 46°42' W 001°57'0 0.0
2016-Jan-28 19:33N 46°42' W 001°57'0 0.1
2016-Jan-28 18:33N 46°42' W 001°56'3 3.2
2016-Jan-28 17:33N 46°39' W 001°57'1010.4
2016-Jan-28 16:33N 46°28' W 001°55'1110.6
2016-Jan-28 15:33N 46°18' W 001°53'84 6.9
2016-Jan-28 03:22N 44°55' W 001°36'3 4.1
2016-Jan-28 02:33N 44°51' W 001°35'3 3.1
2016-Jan-28 01:33N 44°48' W 001°34'4 4.4
2016-Jan-28 00:33N 44°44' W 001°34'4 4.4
2016-Jan-27 23:33N 44°39' W 001°34'4 4.3
2016-Jan-27 22:33N 44°35' W 001°34'4 4.2
2016-Jan-27 21:33N 44°31' W 001°34'4 4.2
2016-Jan-27 20:32N 44°27' W 001°34'4 3.6
2016-Jan-27 19:33N 44°23' W 001°34'4 3.9
2016-Jan-27 18:32N 44°19' W 001°34'4 4.0
2016-Jan-27 17:33N 44°15' W 001°34'4 4.0
2016-Jan-27 16:30N 44°11' W 001°34'15 3.7
2016-Jan-27 12:33N 44°26' W 001°33'4 3.8
2016-Jan-27 11:31N 44°29' W 001°33'4 3.8
2016-Jan-27 10:32N 44°33' W 001°34'4 3.8
2016-Jan-27 09:28N 44°37' W 001°34'4 3.9
2016-Jan-27 08:33N 44°41' W 001°34'2 2.1
2016-Jan-27 07:32N 44°43' W 001°35'4 3.7
2016-Jan-27 06:33N 44°39' W 001°35'4 4.0
2016-Jan-27 05:33N 44°35' W 001°35'4 4.0
2016-Jan-27 04:33N 44°31' W 001°34'4 4.0
2016-Jan-27 03:33N 44°27' W 001°34'2 1.8
2016-Jan-27 02:16N 44°25' W 001°33'3 3.8
2016-Jan-27 01:33N 44°28' W 001°34'3 3.2
2016-Jan-27 00:33N 44°30' W 001°36'2 2.1
2016-Jan-26 23:27N 44°33' W 001°37'7 3.7
2016-Jan-26 21:28N 44°40' W 001°39'3 2.2
2016-Jan-26 20:04N 44°43' W 001°41'2 4.0
2016-Jan-26 19:33N 44°41' W 001°40'5 4.0
2016-Jan-26 18:19N 44°36' W 001°37'3 4.0
2016-Jan-26 17:33N 44°33' W 001°36'5 3.8
2016-Jan-26 16:14N 44°28' W 001°34'3 4.1
2016-Jan-26 15:33N 44°25' W 001°34'2 0.8
2016-Jan-26 13:33N 44°27' W 001°33'4 3.8
2016-Jan-26 12:33N 44°31' W 001°33'4 3.7
2016-Jan-26 11:33N 44°34' W 001°33'4 3.6
2016-Jan-26 10:33N 44°38' W 001°34'5 3.5
2016-Jan-26 09:04N 44°43' W 001°35'3 3.9
2016-Jan-26 08:12N 44°46' W 001°36'2 2.6
2016-Jan-26 07:32N 44°45' W 001°37'4 3.9
2016-Jan-26 06:33N 44°41' W 001°36'5 3.9
2016-Jan-26 05:19N 44°36' W 001°36'3 3.9
2016-Jan-26 04:33N 44°33' W 001°35'4 3.9
2016-Jan-26 03:28N 44°29' W 001°34'4 4.0
2016-Jan-26 02:33N 44°25' W 001°34'  
Track history (hours):
 
Tides and Currents Weather Stations Pressure Air Temp Water Temp Dewpoint Dewpoint Depression Visibility Wind Speed Wind Dir Waves Ship Positions

F/V Jeremi Simon

Last reported at 2016-Feb-05 00:33 UTC. Time now 2016-Feb-06 11:34 UTC.
Position N 46°42' W 001°56'.

Length 20 m.

Type: Other ship. MMSI: 227415000.

Date/timePositionNaut miles runAvg speedWind from/ knotsBaromVisibWave heightAir tempDewpointWater temp
2016-Feb-05 00:33N 46°42' W 001°56'0 0.1
2016-Feb-04 23:33N 46°42' W 001°57'4 4.3
2016-Feb-04 22:33N 46°37' W 001°57'9 9.1
2016-Feb-04 21:33N 46°29' W 001°51'3 2.8
2016-Feb-04 20:33N 46°30' W 001°47'0 0.0
2016-Feb-04 19:33N 46°30' W 001°47'0 0.0
2016-Feb-04 18:33N 46°30' W 001°47'0 0.0
2016-Feb-04 17:33N 46°30' W 001°47'0 0.0
2016-Feb-04 16:33N 46°30' W 001°47'0 0.0
2016-Feb-04 15:33N 46°30' W 001°47'0 0.0
2016-Feb-04 14:33N 46°30' W 001°47'5 4.6
2016-Feb-04 13:33N 46°30' W 001°54'10 9.8
2016-Feb-04 12:33N 46°34' W 002°07'  
2016-Feb-01 16:15N 47°01' W 003°52'6 8.1
2016-Feb-01 15:28N 46°58' W 003°43'8 8.1
2016-Feb-01 14:27N 46°54' W 003°33'7 8.1
2016-Feb-01 13:32N 46°51' W 003°23'31 7.7
2016-Feb-01 09:32N 46°40' W 002°41'8 7.7
2016-Feb-01 08:32N 46°39' W 002°30'7 7.5
2016-Feb-01 07:33N 46°40' W 002°19'8 7.7
2016-Feb-01 06:33N 46°40' W 002°08'7 7.4
2016-Feb-01 05:33N 46°41' W 001°57'  
2016-Jan-29 10:33N 46°42' W 001°57'0 0.0
2016-Jan-29 09:33N 46°42' W 001°57'0 0.0
2016-Jan-28 19:33N 46°42' W 001°57'0 0.1
2016-Jan-28 18:33N 46°42' W 001°56'3 3.2
2016-Jan-28 17:33N 46°39' W 001°57'1010.4
2016-Jan-28 16:33N 46°28' W 001°55'1110.6
2016-Jan-28 15:33N 46°18' W 001°53'84 6.9
2016-Jan-28 03:22N 44°55' W 001°36'3 4.1
2016-Jan-28 02:33N 44°51' W 001°35'3 3.1
2016-Jan-28 01:33N 44°48' W 001°34'4 4.4
2016-Jan-28 00:33N 44°44' W 001°34'4 4.4
2016-Jan-27 23:33N 44°39' W 001°34'4 4.3
2016-Jan-27 22:33N 44°35' W 001°34'4 4.2
2016-Jan-27 21:33N 44°31' W 001°34'4 4.2
2016-Jan-27 20:32N 44°27' W 001°34'4 3.6
2016-Jan-27 19:33N 44°23' W 001°34'4 3.9
2016-Jan-27 18:32N 44°19' W 001°34'4 4.0
2016-Jan-27 17:33N 44°15' W 001°34'4 4.0
2016-Jan-27 16:30N 44°11' W 001°34'15 3.7
2016-Jan-27 12:33N 44°26' W 001°33'4 3.8
2016-Jan-27 11:31N 44°29' W 001°33'4 3.8
2016-Jan-27 10:32N 44°33' W 001°34'4 3.8
2016-Jan-27 09:28N 44°37' W 001°34'4 3.9
2016-Jan-27 08:33N 44°41' W 001°34'2 2.1
2016-Jan-27 07:32N 44°43' W 001°35'4 3.7
2016-Jan-27 06:33N 44°39' W 001°35'4 4.0
2016-Jan-27 05:33N 44°35' W 001°35'4 4.0
2016-Jan-27 04:33N 44°31' W 001°34'4 4.0
2016-Jan-27 03:33N 44°27' W 001°34'2 1.8
2016-Jan-27 02:16N 44°25' W 001°33'3 3.8
2016-Jan-27 01:33N 44°28' W 001°34'3 3.2
2016-Jan-27 00:33N 44°30' W 001°36'2 2.1
2016-Jan-26 23:27N 44°33' W 001°37'7 3.7
2016-Jan-26 21:28N 44°40' W 001°39'3 2.2
2016-Jan-26 20:04N 44°43' W 001°41'2 4.0
2016-Jan-26 19:33N 44°41' W 001°40'5 4.0
2016-Jan-26 18:19N 44°36' W 001°37'3 4.0
2016-Jan-26 17:33N 44°33' W 001°36'5 3.8
2016-Jan-26 16:14N 44°28' W 001°34'3 4.1
2016-Jan-26 15:33N 44°25' W 001°34'2 0.8
2016-Jan-26 13:33N 44°27' W 001°33'4 3.8
2016-Jan-26 12:33N 44°31' W 001°33'4 3.7
2016-Jan-26 11:33N 44°34' W 001°33'4 3.6
2016-Jan-26 10:33N 44°38' W 001°34'5 3.5
2016-Jan-26 09:04N 44°43' W 001°35'3 3.9
2016-Jan-26 08:12N 44°46' W 001°36'2 2.6
2016-Jan-26 07:32N 44°45' W 001°37'4 3.9
2016-Jan-26 06:33N 44°41' W 001°36'5 3.9
2016-Jan-26 05:19N 44°36' W 001°36'3 3.9
2016-Jan-26 04:33N 44°33' W 001°35'4 3.9
2016-Jan-26 03:28N 44°29' W 001°34'4 4.0
2016-Jan-26 02:33N 44°25' W 001°34'  

Dump ship's entire track history